sensor_id;sensor_type;location;lat;lon;timestamp;P1;durP1;ratioP1;P2;durP2;ratioP2
16502;SDS011;53067;48.114;11.694;2022-10-23T00:01:15;1.90;;;1.80;;
16502;SDS011;53067;48.114;11.694;2022-10-23T00:03:44;2.23;;;2.03;;
16502;SDS011;53067;48.114;11.694;2022-10-23T00:06:13;1.87;;;1.77;;
16502;SDS011;53067;48.114;11.694;2022-10-23T00:08:41;2.00;;;1.90;;
16502;SDS011;53067;48.114;11.694;2022-10-23T00:11:09;1.80;;;1.70;;
16502;SDS011;53067;48.114;11.694;2022-10-23T00:13:39;2.30;;;1.83;;
16502;SDS011;53067;48.114;11.694;2022-10-23T00:16:07;4.83;;;1.90;;
16502;SDS011;53067;48.114;11.694;2022-10-23T00:18:36;3.77;;;2.03;;
16502;SDS011;53067;48.114;11.694;2022-10-23T00:21:05;3.63;;;2.23;;
16502;SDS011;53067;48.114;11.694;2022-10-23T00:23:33;2.40;;;1.90;;
16502;SDS011;53067;48.114;11.694;2022-10-23T00:26:01;1.83;;;1.63;;
16502;SDS011;53067;48.114;11.694;2022-10-23T00:28:30;2.20;;;1.80;;
16502;SDS011;53067;48.114;11.694;2022-10-23T00:31:00;3.03;;;1.70;;
16502;SDS011;53067;48.114;11.694;2022-10-23T00:33:30;1.77;;;1.63;;
16502;SDS011;53067;48.114;11.694;2022-10-23T00:35:58;5.60;;;1.90;;
16502;SDS011;53067;48.114;11.694;2022-10-23T00:38:26;2.10;;;1.93;;
16502;SDS011;53067;48.114;11.694;2022-10-23T00:40:53;2.10;;;1.90;;
16502;SDS011;53067;48.114;11.694;2022-10-23T00:43:22;1.80;;;1.70;;
16502;SDS011;53067;48.114;11.694;2022-10-23T00:45:51;1.73;;;1.63;;
16502;SDS011;53067;48.114;11.694;2022-10-23T00:48:19;1.80;;;1.70;;
16502;SDS011;53067;48.114;11.694;2022-10-23T00:50:48;1.70;;;1.60;;
16502;SDS011;53067;48.114;11.694;2022-10-23T00:53:16;2.37;;;2.17;;
16502;SDS011;53067;48.114;11.694;2022-10-23T00:55:46;1.77;;;1.67;;
16502;SDS011;53067;48.114;11.694;2022-10-23T00:58:16;1.83;;;1.73;;
16502;SDS011;53067;48.114;11.694;2022-10-23T01:00:47;1.83;;;1.73;;
16502;SDS011;53067;48.114;11.694;2022-10-23T01:03:23;2.10;;;2.00;;
16502;SDS011;53067;48.114;11.694;2022-10-23T01:05:59;1.90;;;1.80;;
16502;SDS011;53067;48.114;11.694;2022-10-23T01:08:34;1.90;;;1.80;;
16502;SDS011;53067;48.114;11.694;2022-10-23T01:11:09;2.87;;;2.10;;
16502;SDS011;53067;48.114;11.694;2022-10-23T01:16:36;2.27;;;1.90;;
16502;SDS011;53067;48.114;11.694;2022-10-23T01:19:01;2.20;;;2.00;;
16502;SDS011;53067;48.114;11.694;2022-10-23T01:21:54;2.20;;;2.00;;
16502;SDS011;53067;48.114;11.694;2022-10-23T01:24:42;2.27;;;2.07;;
16502;SDS011;53067;48.114;11.694;2022-10-23T01:30:00;3.00;;;2.30;;
16502;SDS011;53067;48.114;11.694;2022-10-23T01:32:38;1.80;;;1.70;;
16502;SDS011;53067;48.114;11.694;2022-10-23T01:35:30;1.93;;;1.83;;
16502;SDS011;53067;48.114;11.694;2022-10-23T01:38:10;4.60;;;2.13;;
16502;SDS011;53067;48.114;11.694;2022-10-23T01:40:43;2.53;;;2.10;;
16502;SDS011;53067;48.114;11.694;2022-10-23T01:43:13;2.40;;;2.20;;
16502;SDS011;53067;48.114;11.694;2022-10-23T01:45:43;2.40;;;2.30;;
16502;SDS011;53067;48.114;11.694;2022-10-23T01:48:14;2.20;;;2.00;;
16502;SDS011;53067;48.114;11.694;2022-10-23T01:51:02;2.23;;;2.10;;
16502;SDS011;53067;48.114;11.694;2022-10-23T01:53:33;2.10;;;2.00;;
16502;SDS011;53067;48.114;11.694;2022-10-23T01:56:05;3.40;;;2.00;;
16502;SDS011;53067;48.114;11.694;2022-10-23T01:58:33;4.53;;;2.23;;
16502;SDS011;53067;48.114;11.694;2022-10-23T02:01:03;2.03;;;1.63;;
16502;SDS011;53067;48.114;11.694;2022-10-23T02:03:32;2.13;;;2.03;;
16502;SDS011;53067;48.114;11.694;2022-10-23T02:06:02;2.50;;;1.90;;
16502;SDS011;53067;48.114;11.694;2022-10-23T02:08:50;2.20;;;2.00;;
16502;SDS011;53067;48.114;11.694;2022-10-23T02:11:19;2.27;;;2.10;;
16502;SDS011;53067;48.114;11.694;2022-10-23T02:13:54;2.30;;;2.07;;
16502;SDS011;53067;48.114;11.694;2022-10-23T02:16:40;2.00;;;1.90;;
16502;SDS011;53067;48.114;11.694;2022-10-23T02:24:37;2.10;;;2.00;;
16502;SDS011;53067;48.114;11.694;2022-10-23T02:27:09;2.20;;;2.10;;
16502;SDS011;53067;48.114;11.694;2022-10-23T02:29:44;1.70;;;1.60;;
16502;SDS011;53067;48.114;11.694;2022-10-23T02:32:16;1.73;;;1.63;;
16502;SDS011;53067;48.114;11.694;2022-10-23T02:34:46;1.90;;;1.80;;
16502;SDS011;53067;48.114;11.694;2022-10-23T02:37:14;2.07;;;1.97;;
16502;SDS011;53067;48.114;11.694;2022-10-23T02:39:42;2.20;;;2.10;;
16502;SDS011;53067;48.114;11.694;2022-10-23T02:47:54;2.40;;;2.20;;
16502;SDS011;53067;48.114;11.694;2022-10-23T02:50:32;4.90;;;1.93;;
16502;SDS011;53067;48.114;11.694;2022-10-23T03:01:41;2.13;;;2.03;;
16502;SDS011;53067;48.114;11.694;2022-10-23T03:04:20;2.10;;;1.90;;
16502;SDS011;53067;48.114;11.694;2022-10-23T03:06:51;3.83;;;2.00;;
16502;SDS011;53067;48.114;11.694;2022-10-23T03:09:19;1.90;;;1.80;;
16502;SDS011;53067;48.114;11.694;2022-10-23T03:11:46;2.30;;;2.10;;
16502;SDS011;53067;48.114;11.694;2022-10-23T03:14:14;2.10;;;2.00;;
16502;SDS011;53067;48.114;11.694;2022-10-23T03:16:41;2.10;;;2.00;;
16502;SDS011;53067;48.114;11.694;2022-10-23T03:19:10;2.40;;;2.20;;
16502;SDS011;53067;48.114;11.694;2022-10-23T03:21:38;2.27;;;2.17;;
16502;SDS011;53067;48.114;11.694;2022-10-23T03:24:06;2.77;;;2.00;;
16502;SDS011;53067;48.114;11.694;2022-10-23T03:26:34;2.30;;;2.20;;
16502;SDS011;53067;48.114;11.694;2022-10-23T03:29:01;2.00;;;1.90;;
16502;SDS011;53067;48.114;11.694;2022-10-23T03:31:28;2.50;;;2.30;;
16502;SDS011;53067;48.114;11.694;2022-10-23T03:33:56;2.20;;;2.07;;
16502;SDS011;53067;48.114;11.694;2022-10-23T03:36:24;2.10;;;1.90;;
16502;SDS011;53067;48.114;11.694;2022-10-23T03:38:51;1.90;;;1.80;;
16502;SDS011;53067;48.114;11.694;2022-10-23T03:41:19;2.33;;;2.23;;
16502;SDS011;53067;48.114;11.694;2022-10-23T03:43:46;4.13;;;2.10;;
16502;SDS011;53067;48.114;11.694;2022-10-23T03:46:14;2.23;;;1.87;;
16502;SDS011;53067;48.114;11.694;2022-10-23T03:48:41;2.33;;;1.77;;
16502;SDS011;53067;48.114;11.694;2022-10-23T03:51:09;2.53;;;2.00;;
16502;SDS011;53067;48.114;11.694;2022-10-23T03:53:36;1.97;;;1.87;;
16502;SDS011;53067;48.114;11.694;2022-10-23T03:56:04;3.67;;;2.00;;
16502;SDS011;53067;48.114;11.694;2022-10-23T03:58:32;1.97;;;1.87;;
16502;SDS011;53067;48.114;11.694;2022-10-23T04:00:59;2.40;;;1.70;;
16502;SDS011;53067;48.114;11.694;2022-10-23T04:03:27;2.10;;;1.87;;
16502;SDS011;53067;48.114;11.694;2022-10-23T04:05:54;1.70;;;1.60;;
16502;SDS011;53067;48.114;11.694;2022-10-23T04:08:22;1.57;;;1.47;;
16502;SDS011;53067;48.114;11.694;2022-10-23T04:10:49;1.90;;;1.80;;
16502;SDS011;53067;48.114;11.694;2022-10-23T04:13:17;2.00;;;1.90;;
16502;SDS011;53067;48.114;11.694;2022-10-23T04:15:48;1.90;;;1.80;;
16502;SDS011;53067;48.114;11.694;2022-10-23T04:18:17;2.37;;;2.17;;
16502;SDS011;53067;48.114;11.694;2022-10-23T04:20:48;2.50;;;2.30;;
16502;SDS011;53067;48.114;11.694;2022-10-23T04:23:16;1.97;;;1.80;;
16502;SDS011;53067;48.114;11.694;2022-10-23T04:25:44;2.03;;;1.80;;
16502;SDS011;53067;48.114;11.694;2022-10-23T04:28:12;1.90;;;1.80;;
16502;SDS011;53067;48.114;11.694;2022-10-23T04:30:39;2.00;;;1.90;;
16502;SDS011;53067;48.114;11.694;2022-10-23T04:33:07;1.80;;;1.70;;
16502;SDS011;53067;48.114;11.694;2022-10-23T04:35:34;2.33;;;2.23;;
16502;SDS011;53067;48.114;11.694;2022-10-23T04:38:02;3.63;;;2.27;;
16502;SDS011;53067;48.114;11.694;2022-10-23T04:40:29;3.03;;;2.13;;
16502;SDS011;53067;48.114;11.694;2022-10-23T04:42:57;2.87;;;2.30;;
16502;SDS011;53067;48.114;11.694;2022-10-23T04:45:24;2.00;;;1.87;;
16502;SDS011;53067;48.114;11.694;2022-10-23T04:47:52;2.40;;;1.80;;
16502;SDS011;53067;48.114;11.694;2022-10-23T04:50:21;2.47;;;1.77;;
16502;SDS011;53067;48.114;11.694;2022-10-23T04:52:52;2.00;;;1.90;;
16502;SDS011;53067;48.114;11.694;2022-10-23T04:55:21;1.93;;;1.83;;
16502;SDS011;53067;48.114;11.694;2022-10-23T04:57:50;2.00;;;1.90;;
16502;SDS011;53067;48.114;11.694;2022-10-23T05:00:18;1.90;;;1.80;;
16502;SDS011;53067;48.114;11.694;2022-10-23T05:02:46;1.90;;;1.80;;
16502;SDS011;53067;48.114;11.694;2022-10-23T05:05:13;2.30;;;2.13;;
16502;SDS011;53067;48.114;11.694;2022-10-23T05:07:41;1.90;;;1.80;;
16502;SDS011;53067;48.114;11.694;2022-10-23T05:10:08;2.40;;;2.10;;
16502;SDS011;53067;48.114;11.694;2022-10-23T05:12:36;2.00;;;1.90;;
16502;SDS011;53067;48.114;11.694;2022-10-23T05:15:04;1.97;;;1.87;;
16502;SDS011;53067;48.114;11.694;2022-10-23T05:17:33;2.17;;;2.07;;
16502;SDS011;53067;48.114;11.694;2022-10-23T05:20:38;2.20;;;2.10;;
16502;SDS011;53067;48.114;11.694;2022-10-23T05:23:07;2.13;;;2.00;;
16502;SDS011;53067;48.114;11.694;2022-10-23T05:25:37;1.97;;;1.80;;
16502;SDS011;53067;48.114;11.694;2022-10-23T05:28:04;2.50;;;2.20;;
16502;SDS011;53067;48.114;11.694;2022-10-23T05:30:32;2.00;;;1.90;;
16502;SDS011;53067;48.114;11.694;2022-10-23T05:33:00;2.53;;;1.93;;
16502;SDS011;53067;48.114;11.694;2022-10-23T05:35:29;2.10;;;2.00;;
16502;SDS011;53067;48.114;11.694;2022-10-23T05:37:58;2.27;;;2.07;;
16502;SDS011;53067;48.114;11.694;2022-10-23T05:40:27;2.60;;;2.40;;
16502;SDS011;53067;48.114;11.694;2022-10-23T05:42:55;4.13;;;2.33;;
16502;SDS011;53067;48.114;11.694;2022-10-23T05:45:22;2.30;;;2.10;;
16502;SDS011;53067;48.114;11.694;2022-10-23T05:47:50;2.43;;;2.20;;
16502;SDS011;53067;48.114;11.694;2022-10-23T05:50:18;2.30;;;2.10;;
16502;SDS011;53067;48.114;11.694;2022-10-23T05:52:46;2.27;;;2.07;;
16502;SDS011;53067;48.114;11.694;2022-10-23T05:55:14;2.57;;;2.03;;
16502;SDS011;53067;48.114;11.694;2022-10-23T05:57:42;2.60;;;2.00;;
16502;SDS011;53067;48.114;11.694;2022-10-23T06:00:10;2.80;;;2.60;;
16502;SDS011;53067;48.114;11.694;2022-10-23T06:02:38;2.23;;;2.07;;
16502;SDS011;53067;48.114;11.694;2022-10-23T06:05:06;2.37;;;2.17;;
16502;SDS011;53067;48.114;11.694;2022-10-23T06:07:34;2.50;;;2.33;;
16502;SDS011;53067;48.114;11.694;2022-10-23T06:10:02;2.47;;;2.27;;
16502;SDS011;53067;48.114;11.694;2022-10-23T06:12:30;2.73;;;2.53;;
16502;SDS011;53067;48.114;11.694;2022-10-23T06:14:58;2.60;;;2.40;;
16502;SDS011;53067;48.114;11.694;2022-10-23T06:17:26;2.70;;;2.10;;
16502;SDS011;53067;48.114;11.694;2022-10-23T06:19:54;3.57;;;2.20;;
16502;SDS011;53067;48.114;11.694;2022-10-23T06:22:23;2.27;;;2.17;;
16502;SDS011;53067;48.114;11.694;2022-10-23T06:24:50;2.80;;;2.60;;
16502;SDS011;53067;48.114;11.694;2022-10-23T06:27:18;2.50;;;2.37;;
16502;SDS011;53067;48.114;11.694;2022-10-23T06:29:45;2.73;;;2.53;;
16502;SDS011;53067;48.114;11.694;2022-10-23T06:32:13;2.57;;;2.27;;
16502;SDS011;53067;48.114;11.694;2022-10-23T06:34:40;2.50;;;2.30;;
16502;SDS011;53067;48.114;11.694;2022-10-23T06:37:08;2.67;;;2.27;;
16502;SDS011;53067;48.114;11.694;2022-10-23T06:39:35;2.20;;;2.10;;
16502;SDS011;53067;48.114;11.694;2022-10-23T06:42:05;2.40;;;2.30;;
16502;SDS011;53067;48.114;11.694;2022-10-23T06:44:32;2.20;;;2.10;;
16502;SDS011;53067;48.114;11.694;2022-10-23T06:47:00;2.43;;;2.00;;
16502;SDS011;53067;48.114;11.694;2022-10-23T06:49:27;3.57;;;2.40;;
16502;SDS011;53067;48.114;11.694;2022-10-23T06:51:55;1.90;;;1.80;;
16502;SDS011;53067;48.114;11.694;2022-10-23T06:54:22;2.60;;;2.07;;
16502;SDS011;53067;48.114;11.694;2022-10-23T06:56:50;2.10;;;1.90;;
16502;SDS011;53067;48.114;11.694;2022-10-23T06:59:18;1.80;;;1.70;;
16502;SDS011;53067;48.114;11.694;2022-10-23T07:01:45;2.70;;;2.00;;
16502;SDS011;53067;48.114;11.694;2022-10-23T07:04:13;1.77;;;1.67;;
16502;SDS011;53067;48.114;11.694;2022-10-23T07:06:41;1.97;;;1.87;;
16502;SDS011;53067;48.114;11.694;2022-10-23T07:09:15;1.70;;;1.60;;
16502;SDS011;53067;48.114;11.694;2022-10-23T07:11:42;1.70;;;1.60;;
16502;SDS011;53067;48.114;11.694;2022-10-23T07:14:10;2.63;;;1.87;;
16502;SDS011;53067;48.114;11.694;2022-10-23T07:16:37;1.33;;;1.33;;
16502;SDS011;53067;48.114;11.694;2022-10-23T07:19:05;3.40;;;1.53;;
16502;SDS011;53067;48.114;11.694;2022-10-23T07:21:33;1.53;;;1.40;;
16502;SDS011;53067;48.114;11.694;2022-10-23T07:24:01;1.70;;;1.60;;
16502;SDS011;53067;48.114;11.694;2022-10-23T07:26:29;1.77;;;1.67;;
16502;SDS011;53067;48.114;11.694;2022-10-23T07:28:57;2.30;;;2.20;;
16502;SDS011;53067;48.114;11.694;2022-10-23T07:31:25;1.80;;;1.70;;
16502;SDS011;53067;48.114;11.694;2022-10-23T07:33:53;2.00;;;1.87;;
16502;SDS011;53067;48.114;11.694;2022-10-23T07:36:20;2.33;;;1.80;;
16502;SDS011;53067;48.114;11.694;2022-10-23T07:38:49;2.10;;;2.00;;
16502;SDS011;53067;48.114;11.694;2022-10-23T07:41:17;2.23;;;2.03;;
16502;SDS011;53067;48.114;11.694;2022-10-23T07:43:45;2.20;;;2.10;;
16502;SDS011;53067;48.114;11.694;2022-10-23T07:46:13;2.30;;;1.70;;
16502;SDS011;53067;48.114;11.694;2022-10-23T07:48:40;3.20;;;2.10;;
16502;SDS011;53067;48.114;11.694;2022-10-23T07:51:12;1.80;;;1.70;;
16502;SDS011;53067;48.114;11.694;2022-10-23T07:53:41;1.90;;;1.80;;
16502;SDS011;53067;48.114;11.694;2022-10-23T07:56:11;1.60;;;1.50;;
16502;SDS011;53067;48.114;11.694;2022-10-23T07:58:40;1.83;;;1.30;;
16502;SDS011;53067;48.114;11.694;2022-10-23T08:01:18;3.50;;;1.30;;
16502;SDS011;53067;48.114;11.694;2022-10-23T08:03:44;1.23;;;1.13;;
16502;SDS011;53067;48.114;11.694;2022-10-23T08:06:12;1.57;;;1.47;;
16502;SDS011;53067;48.114;11.694;2022-10-23T08:08:39;1.53;;;1.33;;
16502;SDS011;53067;48.114;11.694;2022-10-23T08:11:08;1.50;;;1.40;;
16502;SDS011;53067;48.114;11.694;2022-10-23T08:13:37;1.60;;;1.50;;
16502;SDS011;53067;48.114;11.694;2022-10-23T08:16:05;2.97;;;1.57;;
16502;SDS011;53067;48.114;11.694;2022-10-23T08:18:33;2.00;;;1.40;;
16502;SDS011;53067;48.114;11.694;2022-10-23T08:21:01;3.13;;;1.80;;
16502;SDS011;53067;48.114;11.694;2022-10-23T08:23:29;2.10;;;1.60;;
16502;SDS011;53067;48.114;11.694;2022-10-23T08:25:58;1.43;;;1.33;;
16502;SDS011;53067;48.114;11.694;2022-10-23T08:28:26;1.60;;;1.50;;
16502;SDS011;53067;48.114;11.694;2022-10-23T08:30:54;1.70;;;1.60;;
16502;SDS011;53067;48.114;11.694;2022-10-23T08:33:22;1.60;;;1.50;;
16502;SDS011;53067;48.114;11.694;2022-10-23T08:35:50;1.33;;;1.23;;
16502;SDS011;53067;48.114;11.694;2022-10-23T08:38:17;1.60;;;1.50;;
16502;SDS011;53067;48.114;11.694;2022-10-23T08:40:45;1.23;;;1.13;;
16502;SDS011;53067;48.114;11.694;2022-10-23T08:43:21;1.50;;;1.40;;
16502;SDS011;53067;48.114;11.694;2022-10-23T08:46:03;1.30;;;1.27;;
16502;SDS011;53067;48.114;11.694;2022-10-23T08:48:53;1.30;;;1.20;;
16502;SDS011;53067;48.114;11.694;2022-10-23T08:51:24;1.83;;;1.40;;
16502;SDS011;53067;48.114;11.694;2022-10-23T08:54:05;1.10;;;1.07;;
16502;SDS011;53067;48.114;11.694;2022-10-23T08:56:37;1.43;;;1.00;;
16502;SDS011;53067;48.114;11.694;2022-10-23T08:59:14;1.10;;;1.10;;
16502;SDS011;53067;48.114;11.694;2022-10-23T09:01:51;2.03;;;1.20;;
16502;SDS011;53067;48.114;11.694;2022-10-23T09:04:23;1.00;;;1.00;;
16502;SDS011;53067;48.114;11.694;2022-10-23T09:06:53;1.10;;;1.10;;
16502;SDS011;53067;48.114;11.694;2022-10-23T09:12:14;2.70;;;1.10;;
16502;SDS011;53067;48.114;11.694;2022-10-23T09:17:27;1.02;;;1.00;;
16502;SDS011;53067;48.114;11.694;2022-10-23T09:20:12;0.80;;;0.80;;
16502;SDS011;53067;48.114;11.694;2022-10-23T09:22:52;1.00;;;1.00;;
16502;SDS011;53067;48.114;11.694;2022-10-23T09:25:26;1.00;;;0.95;;
16502;SDS011;53067;48.114;11.694;2022-10-23T09:27:55;1.37;;;0.90;;
16502;SDS011;53067;48.114;11.694;2022-10-23T09:30:29;3.23;;;0.80;;
16502;SDS011;53067;48.114;11.694;2022-10-23T09:33:17;0.80;;;0.80;;
16502;SDS011;53067;48.114;11.694;2022-10-23T09:35:54;1.47;;;0.90;;
16502;SDS011;53067;48.114;11.694;2022-10-23T09:38:27;1.85;;;0.90;;
16502;SDS011;53067;48.114;11.694;2022-10-23T09:46:55;0.80;;;0.80;;
16502;SDS011;53067;48.114;11.694;2022-10-23T09:49:27;0.70;;;0.70;;
16502;SDS011;53067;48.114;11.694;2022-10-23T09:54:46;0.85;;;0.82;;
16502;SDS011;53067;48.114;11.694;2022-10-23T09:57:23;2.22;;;1.02;;
16502;SDS011;53067;48.114;11.694;2022-10-23T10:00:15;0.90;;;0.90;;
16502;SDS011;53067;48.114;11.694;2022-10-23T10:02:57;0.80;;;0.80;;
16502;SDS011;53067;48.114;11.694;2022-10-23T10:05:31;1.95;;;0.80;;
16502;SDS011;53067;48.114;11.694;2022-10-23T10:11:03;0.80;;;0.70;;
16502;SDS011;53067;48.114;11.694;2022-10-23T10:13:53;0.93;;;0.93;;
16502;SDS011;53067;48.114;11.694;2022-10-23T10:21:49;1.20;;;0.98;;
16502;SDS011;53067;48.114;11.694;2022-10-23T10:27:18;0.75;;;0.75;;
16502;SDS011;53067;48.114;11.694;2022-10-23T10:30:03;0.80;;;0.80;;
16502;SDS011;53067;48.114;11.694;2022-10-23T10:37:55;1.12;;;1.10;;
16502;SDS011;53067;48.114;11.694;2022-10-23T10:40:30;0.90;;;0.90;;
16502;SDS011;53067;48.114;11.694;2022-10-23T10:50:52;1.00;;;1.00;;
16502;SDS011;53067;48.114;11.694;2022-10-23T10:53:19;1.27;;;1.17;;
16502;SDS011;53067;48.114;11.694;2022-10-23T10:55:48;0.95;;;0.93;;
16502;SDS011;53067;48.114;11.694;2022-10-23T10:58:41;0.70;;;0.70;;
16502;SDS011;53067;48.114;11.694;2022-10-23T11:01:10;0.70;;;0.70;;
16502;SDS011;53067;48.114;11.694;2022-10-23T11:03:38;1.05;;;1.05;;
16502;SDS011;53067;48.114;11.694;2022-10-23T11:06:11;0.93;;;0.93;;
16502;SDS011;53067;48.114;11.694;2022-10-23T11:08:44;0.80;;;0.70;;
16502;SDS011;53067;48.114;11.694;2022-10-23T11:11:14;1.02;;;1.02;;
16502;SDS011;53067;48.114;11.694;2022-10-23T11:13:43;1.30;;;1.10;;
16502;SDS011;53067;48.114;11.694;2022-10-23T11:16:23;2.25;;;0.90;;
16502;SDS011;53067;48.114;11.694;2022-10-23T11:19:03;1.40;;;1.30;;
16502;SDS011;53067;48.114;11.694;2022-10-23T11:21:41;0.90;;;0.90;;
16502;SDS011;53067;48.114;11.694;2022-10-23T11:24:17;0.70;;;0.70;;
16502;SDS011;53067;48.114;11.694;2022-10-23T11:29:57;5.25;;;1.20;;
16502;SDS011;53067;48.114;11.694;2022-10-23T11:32:38;1.82;;;0.90;;
16502;SDS011;53067;48.114;11.694;2022-10-23T11:38:23;1.20;;;0.88;;
16502;SDS011;53067;48.114;11.694;2022-10-23T11:41:03;1.12;;;0.85;;
16502;SDS011;53067;48.114;11.694;2022-10-23T11:43:52;0.88;;;0.70;;
16502;SDS011;53067;48.114;11.694;2022-10-23T11:46:39;0.80;;;0.80;;
16502;SDS011;53067;48.114;11.694;2022-10-23T11:49:18;2.30;;;1.00;;
16502;SDS011;53067;48.114;11.694;2022-10-23T11:51:38;0.93;;;0.90;;
16502;SDS011;53067;48.114;11.694;2022-10-23T11:54:27;1.02;;;0.70;;
16502;SDS011;53067;48.114;11.694;2022-10-23T11:56:53;0.72;;;0.72;;
16502;SDS011;53067;48.114;11.694;2022-10-23T12:02:02;2.85;;;0.90;;
16502;SDS011;53067;48.114;11.694;2022-10-23T12:04:38;1.30;;;0.60;;
16502;SDS011;53067;48.114;11.694;2022-10-23T12:07:25;0.88;;;0.88;;
16502;SDS011;53067;48.114;11.694;2022-10-23T12:09:57;0.90;;;0.90;;
16502;SDS011;53067;48.114;11.694;2022-10-23T12:12:30;0.90;;;0.90;;
16502;SDS011;53067;48.114;11.694;2022-10-23T12:15:07;1.17;;;0.90;;
16502;SDS011;53067;48.114;11.694;2022-10-23T12:17:37;0.82;;;0.82;;
16502;SDS011;53067;48.114;11.694;2022-10-23T12:25:33;0.72;;;0.72;;
16502;SDS011;53067;48.114;11.694;2022-10-23T12:31:13;1.02;;;0.85;;
16502;SDS011;53067;48.114;11.694;2022-10-23T12:39:28;1.17;;;0.98;;
16502;SDS011;53067;48.114;11.694;2022-10-23T12:42:04;1.37;;;0.82;;
16502;SDS011;53067;48.114;11.694;2022-10-23T12:44:39;1.00;;;1.00;;
16502;SDS011;53067;48.114;11.694;2022-10-23T12:47:10;1.00;;;1.00;;
16502;SDS011;53067;48.114;11.694;2022-10-23T12:49:47;1.45;;;0.82;;
16502;SDS011;53067;48.114;11.694;2022-10-23T12:52:17;1.35;;;1.30;;
16502;SDS011;53067;48.114;11.694;2022-10-23T12:54:46;1.82;;;1.10;;
16502;SDS011;53067;48.114;11.694;2022-10-23T12:57:19;1.00;;;1.00;;
16502;SDS011;53067;48.114;11.694;2022-10-23T13:00:01;1.02;;;1.02;;
16502;SDS011;53067;48.114;11.694;2022-10-23T13:02:29;1.47;;;1.25;;
16502;SDS011;53067;48.114;11.694;2022-10-23T13:04:59;1.27;;;1.07;;
16502;SDS011;53067;48.114;11.694;2022-10-23T13:07:31;1.85;;;0.85;;
16502;SDS011;53067;48.114;11.694;2022-10-23T13:10:01;2.27;;;1.05;;
16502;SDS011;53067;48.114;11.694;2022-10-23T13:15:21;1.47;;;0.70;;
16502;SDS011;53067;48.114;11.694;2022-10-23T13:20:58;1.17;;;1.00;;
16502;SDS011;53067;48.114;11.694;2022-10-23T13:26:28;1.20;;;1.10;;
16502;SDS011;53067;48.114;11.694;2022-10-23T13:31:55;1.42;;;1.10;;
16502;SDS011;53067;48.114;11.694;2022-10-23T13:34:24;1.50;;;1.40;;
16502;SDS011;53067;48.114;11.694;2022-10-23T13:37:00;1.70;;;1.10;;
16502;SDS011;53067;48.114;11.694;2022-10-23T13:39:32;0.90;;;0.90;;
16502;SDS011;53067;48.114;11.694;2022-10-23T13:42:07;1.00;;;1.00;;
16502;SDS011;53067;48.114;11.694;2022-10-23T13:44:37;1.20;;;0.93;;
16502;SDS011;53067;48.114;11.694;2022-10-23T13:47:04;1.00;;;1.00;;
16502;SDS011;53067;48.114;11.694;2022-10-23T13:49:34;1.27;;;1.17;;
16502;SDS011;53067;48.114;11.694;2022-10-23T13:52:01;1.02;;;1.00;;
16502;SDS011;53067;48.114;11.694;2022-10-23T13:54:29;1.00;;;1.00;;
16502;SDS011;53067;48.114;11.694;2022-10-23T13:56:56;1.27;;;1.07;;
16502;SDS011;53067;48.114;11.694;2022-10-23T13:59:24;0.90;;;0.90;;
16502;SDS011;53067;48.114;11.694;2022-10-23T14:01:51;0.93;;;0.90;;
16502;SDS011;53067;48.114;11.694;2022-10-23T14:04:19;1.65;;;0.90;;
16502;SDS011;53067;48.114;11.694;2022-10-23T14:06:48;2.60;;;0.90;;
16502;SDS011;53067;48.114;11.694;2022-10-23T14:09:17;1.00;;;0.95;;
16502;SDS011;53067;48.114;11.694;2022-10-23T14:11:45;1.50;;;1.10;;
16502;SDS011;53067;48.114;11.694;2022-10-23T14:14:12;1.05;;;1.05;;
16502;SDS011;53067;48.114;11.694;2022-10-23T14:16:40;2.45;;;1.10;;
16502;SDS011;53067;48.114;11.694;2022-10-23T14:19:08;1.50;;;1.42;;
16502;SDS011;53067;48.114;11.694;2022-10-23T14:21:36;1.85;;;1.45;;
16502;SDS011;53067;48.114;11.694;2022-10-23T14:24:03;7.08;;;1.30;;
16502;SDS011;53067;48.114;11.694;2022-10-23T14:26:31;1.87;;;1.27;;
16502;SDS011;53067;48.114;11.694;2022-10-23T14:29:00;1.55;;;1.45;;
16502;SDS011;53067;48.114;11.694;2022-10-23T14:31:27;1.15;;;0.80;;
16502;SDS011;53067;48.114;11.694;2022-10-23T14:33:55;1.02;;;1.02;;
16502;SDS011;53067;48.114;11.694;2022-10-23T14:36:25;1.15;;;1.15;;
16502;SDS011;53067;48.114;11.694;2022-10-23T14:38:54;1.37;;;1.27;;
16502;SDS011;53067;48.114;11.694;2022-10-23T14:41:23;1.92;;;1.72;;
16502;SDS011;53067;48.114;11.694;2022-10-23T14:43:52;1.98;;;1.70;;
16502;SDS011;53067;48.114;11.694;2022-10-23T14:46:21;1.45;;;1.27;;
16502;SDS011;53067;48.114;11.694;2022-10-23T14:48:51;2.87;;;1.50;;
16502;SDS011;53067;48.114;11.694;2022-10-23T14:51:20;1.32;;;1.22;;
16502;SDS011;53067;48.114;11.694;2022-10-23T14:53:53;1.30;;;1.15;;
16502;SDS011;53067;48.114;11.694;2022-10-23T14:56:24;1.42;;;1.30;;
16502;SDS011;53067;48.114;11.694;2022-10-23T14:58:52;2.22;;;1.40;;
16502;SDS011;53067;48.114;11.694;2022-10-23T15:01:22;1.30;;;1.20;;
16502;SDS011;53067;48.114;11.694;2022-10-23T15:03:49;1.60;;;1.50;;
16502;SDS011;53067;48.114;11.694;2022-10-23T15:06:18;2.67;;;1.57;;
16502;SDS011;53067;48.114;11.694;2022-10-23T15:08:48;1.57;;;1.22;;
16502;SDS011;53067;48.114;11.694;2022-10-23T15:11:16;1.50;;;1.40;;
16502;SDS011;53067;48.114;11.694;2022-10-23T15:13:44;3.77;;;1.20;;
16502;SDS011;53067;48.114;11.694;2022-10-23T15:16:12;1.35;;;1.20;;
16502;SDS011;53067;48.114;11.694;2022-10-23T15:19:02;1.10;;;1.10;;
16502;SDS011;53067;48.114;11.694;2022-10-23T15:21:29;2.58;;;1.30;;
16502;SDS011;53067;48.114;11.694;2022-10-23T15:24:02;1.17;;;1.17;;
16502;SDS011;53067;48.114;11.694;2022-10-23T15:26:31;2.15;;;1.62;;
16502;SDS011;53067;48.114;11.694;2022-10-23T15:28:59;1.70;;;1.50;;
16502;SDS011;53067;48.114;11.694;2022-10-23T15:34:10;2.30;;;1.52;;
16502;SDS011;53067;48.114;11.694;2022-10-23T15:36:40;1.65;;;1.52;;
16502;SDS011;53067;48.114;11.694;2022-10-23T15:39:08;2.75;;;1.57;;
16502;SDS011;53067;48.114;11.694;2022-10-23T15:41:41;1.90;;;1.80;;
16502;SDS011;53067;48.114;11.694;2022-10-23T15:44:15;1.95;;;1.80;;
16502;SDS011;53067;48.114;11.694;2022-10-23T15:46:40;2.05;;;1.60;;
16502;SDS011;53067;48.114;11.694;2022-10-23T15:49:07;1.77;;;1.60;;
16502;SDS011;53067;48.114;11.694;2022-10-23T15:51:36;2.15;;;1.65;;
16502;SDS011;53067;48.114;11.694;2022-10-23T15:54:07;3.98;;;1.40;;
16502;SDS011;53067;48.114;11.694;2022-10-23T15:56:36;2.10;;;1.70;;
16502;SDS011;53067;48.114;11.694;2022-10-23T15:59:04;2.08;;;1.50;;
16502;SDS011;53067;48.114;11.694;2022-10-23T16:01:31;1.60;;;1.50;;
16502;SDS011;53067;48.114;11.694;2022-10-23T16:03:59;2.05;;;1.40;;
16502;SDS011;53067;48.114;11.694;2022-10-23T16:06:26;3.58;;;1.65;;
16502;SDS011;53067;48.114;11.694;2022-10-23T16:08:54;1.70;;;1.60;;
16502;SDS011;53067;48.114;11.694;2022-10-23T16:11:23;2.17;;;1.90;;
16502;SDS011;53067;48.114;11.694;2022-10-23T16:13:55;2.85;;;1.80;;
16502;SDS011;53067;48.114;11.694;2022-10-23T16:16:24;2.22;;;1.85;;
16502;SDS011;53067;48.114;11.694;2022-10-23T16:18:53;1.90;;;1.80;;
16502;SDS011;53067;48.114;11.694;2022-10-23T16:21:24;2.03;;;1.80;;
16502;SDS011;53067;48.114;11.694;2022-10-23T16:23:53;4.10;;;1.67;;
16502;SDS011;53067;48.114;11.694;2022-10-23T16:26:23;2.60;;;1.57;;
16502;SDS011;53067;48.114;11.694;2022-10-23T16:28:57;1.70;;;1.60;;
16502;SDS011;53067;48.114;11.694;2022-10-23T16:31:25;3.08;;;1.80;;
16502;SDS011;53067;48.114;11.694;2022-10-23T16:33:58;1.60;;;1.50;;
16502;SDS011;53067;48.114;11.694;2022-10-23T16:36:27;1.95;;;1.85;;